Time;durP1;ratioP1;P1;durP2;ratioP2;P2;SDS_P1;SDS_P2;PMS_P1;PMS_P2;Temp;Humidity;BMP_temperature;BMP_pressure;BME280_temperature;BME280_humidity;BME280_pressure;Samples;Min_cycle;Max_cycle;Signal;HPM_P1;HPM_P2
2023/04/03 00:01:03;;;;;;;5.97;3.63;;;1.50;99.90;;;;;;5004447;28;20210;-82
2023/04/03 00:03:30;;;;;;;3.65;2.50;;;1.40;99.90;;;;;;5008744;28;20256;-80
2023/04/03 00:05:57;;;;;;;6.00;2.65;;;1.40;99.90;;;;;;4988279;28;20214;-84
2023/04/03 00:08:24;;;;;;;5.60;2.58;;;1.40;99.90;;;;;;4985258;28;20213;-81
2023/04/03 00:10:51;;;;;;;4.95;2.45;;;1.40;99.90;;;;;;5010980;28;20205;-81
2023/04/03 00:13:18;;;;;;;5.70;2.95;;;1.30;99.90;;;;;;5005214;28;20275;-85
2023/04/03 00:15:45;;;;;;;3.20;1.92;;;1.30;99.90;;;;;;4995980;28;20193;-86
2023/04/03 00:18:12;;;;;;;5.30;2.20;;;1.30;99.90;;;;;;4994889;28;20552;-82
2023/04/03 00:20:39;;;;;;;3.97;2.05;;;1.20;99.90;;;;;;4999555;28;20696;-80
2023/04/03 00:23:06;;;;;;;3.95;2.30;;;1.10;99.90;;;;;;5009393;28;20425;-81
2023/04/03 00:25:33;;;;;;;3.08;2.45;;;1.20;99.90;;;;;;5004352;28;20213;-83
2023/04/03 00:28:00;;;;;;;4.90;1.95;;;1.10;99.90;;;;;;4999086;28;20263;-79
2023/04/03 00:30:27;;;;;;;7.20;3.17;;;1.20;99.90;;;;;;4978201;28;20518;-80
2023/04/03 00:32:54;;;;;;;4.95;2.33;;;1.10;99.90;;;;;;5010081;28;20213;-83
2023/04/03 00:35:22;;;;;;;5.70;2.92;;;1.10;99.90;;;;;;5003006;28;20210;-80
2023/04/03 00:37:55;;;;;;;3.47;2.03;;;1.10;99.90;;;;;;5006181;28;20229;-79
2023/04/03 00:40:24;;;;;;;7.10;3.15;;;1.00;99.90;;;;;;5000142;28;20210;-81
2023/04/03 00:42:56;;;;;;;6.47;2.55;;;1.10;99.90;;;;;;5003491;28;20256;-82
2023/04/03 00:45:28;;;;;;;6.72;3.03;;;1.10;99.90;;;;;;5007152;28;20215;-82
2023/04/03 00:47:56;;;;;;;2.47;2.10;;;1.10;99.90;;;;;;5006673;28;20209;-82
2023/04/03 00:50:23;;;;;;;3.30;2.65;;;1.00;99.90;;;;;;4995996;28;20264;-81
2023/04/03 00:52:51;;;;;;;4.85;3.45;;;0.90;99.90;;;;;;4999143;28;20237;-80
2023/04/03 00:55:18;;;;;;;5.97;2.50;;;0.90;99.90;;;;;;5003025;28;20217;-80
2023/04/03 00:57:46;;;;;;;5.22;2.42;;;0.80;99.90;;;;;;4998818;28;20272;-82
2023/04/03 01:00:16;;;;;;;6.30;2.38;;;0.80;99.90;;;;;;5008920;28;20220;-82
2023/04/03 01:02:44;;;;;;;9.30;3.13;;;0.90;99.90;;;;;;4983916;28;20238;-82
2023/04/03 01:05:12;;;;;;;3.90;2.60;;;0.80;99.90;;;;;;4999670;28;20259;-80
2023/04/03 01:07:40;;;;;;;3.15;2.30;;;0.80;99.90;;;;;;4998157;28;20214;-82
2023/04/03 01:10:11;;;;;;;8.73;3.30;;;0.80;99.90;;;;;;5004892;28;20255;-82
2023/04/03 01:12:39;;;;;;;2.92;2.55;;;0.80;99.90;;;;;;5008670;28;20250;-81
2023/04/03 01:15:16;;;;;;;2.38;1.90;;;0.80;99.90;;;;;;5012026;28;20189;-82
2023/04/03 01:17:48;;;;;;;6.82;3.15;;;0.80;99.90;;;;;;5022930;28;20218;-81
2023/04/03 01:20:41;;;;;;;5.88;2.40;;;0.80;99.90;;;;;;5006184;28;20205;-80
2023/04/03 01:23:16;;;;;;;4.43;2.60;;;0.80;99.90;;;;;;5000871;28;20252;-80
2023/04/03 01:25:53;;;;;;;7.47;3.60;;;0.90;99.90;;;;;;5008361;28;20206;-79
2023/04/03 01:28:32;;;;;;;3.50;2.50;;;0.90;99.90;;;;;;4998872;28;20196;-79
2023/04/03 01:31:29;;;;;;;3.92;2.30;;;0.90;99.90;;;;;;4995304;28;20228;-80
2023/04/03 01:33:56;;;;;;;7.78;2.45;;;0.90;99.90;;;;;;4985016;28;20212;-82
2023/04/03 01:36:26;;;;;;;6.82;2.67;;;0.90;99.90;;;;;;5012124;28;20240;-81
2023/04/03 01:38:54;;;;;;;6.93;2.80;;;0.90;99.90;;;;;;4996564;28;20206;-78
2023/04/03 01:41:21;;;;;;;11.35;2.85;;;1.00;99.90;;;;;;4981996;28;20202;-79
2023/04/03 01:43:49;;;;;;;6.82;3.05;;;1.00;99.90;;;;;;5003792;28;20713;-82
2023/04/03 01:46:16;;;;;;;5.97;2.90;;;0.90;99.90;;;;;;4997925;28;20218;-83
2023/04/03 01:48:44;;;;;;;5.65;2.55;;;0.90;99.90;;;;;;4999946;28;20206;-79
2023/04/03 01:51:11;;;;;;;8.52;3.10;;;0.90;99.90;;;;;;4997756;28;20256;-79
2023/04/03 01:53:38;;;;;;;3.05;2.50;;;0.90;99.90;;;;;;5004519;28;20506;-81
2023/04/03 01:56:05;;;;;;;4.85;2.30;;;0.80;99.90;;;;;;5002445;28;20273;-81
2023/04/03 01:58:32;;;;;;;6.57;3.22;;;0.80;99.90;;;;;;5004731;28;20343;-80
2023/04/03 02:00:59;;;;;;;3.70;2.47;;;0.80;99.90;;;;;;4998697;28;20709;-85
2023/04/03 02:03:26;;;;;;;3.75;2.40;;;0.70;99.90;;;;;;4981896;28;20229;-81
2023/04/03 02:05:53;;;;;;;8.82;2.60;;;0.70;99.90;;;;;;5010503;28;20461;-81
2023/04/03 02:08:20;;;;;;;3.13;2.17;;;0.70;99.90;;;;;;4985723;28;20268;-81
2023/04/03 02:10:48;;;;;;;9.77;3.35;;;0.70;99.90;;;;;;5010796;28;20251;-81
2023/04/03 02:13:16;;;;;;;7.47;3.20;;;0.70;99.90;;;;;;5015758;28;20209;-80
2023/04/03 02:15:43;;;;;;;4.03;3.28;;;0.60;99.90;;;;;;4995042;28;20209;-82
2023/04/03 02:18:10;;;;;;;5.82;3.35;;;0.60;99.90;;;;;;5009173;28;20237;-80
2023/04/03 02:20:37;;;;;;;2.47;2.22;;;0.60;99.90;;;;;;5002072;28;20235;-83
2023/04/03 02:23:05;;;;;;;6.72;2.65;;;0.50;99.90;;;;;;4994675;28;20548;-80
2023/04/03 02:25:33;;;;;;;6.18;3.08;;;0.50;99.90;;;;;;5001727;28;20372;-82
2023/04/03 02:28:04;;;;;;;7.38;2.38;;;0.40;99.90;;;;;;5004585;28;20257;-80
2023/04/03 02:30:31;;;;;;;4.25;2.95;;;0.40;99.90;;;;;;5015837;28;20217;-81
2023/04/03 02:32:58;;;;;;;4.50;3.10;;;0.30;99.90;;;;;;5017061;28;20209;-83
2023/04/03 02:35:25;;;;;;;4.47;2.72;;;0.30;99.90;;;;;;5002020;28;20267;-85
2023/04/03 02:37:52;;;;;;;10.48;4.10;;;0.30;99.90;;;;;;5010381;28;20227;-81
2023/04/03 02:40:19;;;;;;;6.82;4.10;;;0.30;99.90;;;;;;5009520;28;20521;-81
2023/04/03 02:42:46;;;;;;;9.70;3.50;;;0.30;99.90;;;;;;5018355;28;20287;-81
2023/04/03 02:45:12;;;;;;;6.85;3.40;;;0.20;99.90;;;;;;4990067;28;20264;-86
2023/04/03 02:47:39;;;;;;;5.18;4.07;;;0.20;99.90;;;;;;5001454;28;20213;-84
2023/04/03 02:50:07;;;;;;;8.93;4.15;;;0.10;99.90;;;;;;5003224;28;20565;-83
2023/04/03 02:52:33;;;;;;;7.97;3.58;;;0.20;99.90;;;;;;5020799;28;20212;-80
2023/04/03 02:55:01;;;;;;;7.20;3.95;;;0.10;99.90;;;;;;5020631;28;20216;-83
2023/04/03 02:57:27;;;;;;;9.02;4.30;;;0.20;99.90;;;;;;5003635;28;20279;-82
2023/04/03 02:59:55;;;;;;;14.32;3.78;;;0.20;99.90;;;;;;5007001;28;20212;-80
2023/04/03 03:02:22;;;;;;;6.05;3.47;;;0.20;99.90;;;;;;4997059;28;20248;-80
2023/04/03 03:04:49;;;;;;;3.88;3.38;;;0.20;99.90;;;;;;5009431;28;20213;-80
2023/04/03 03:07:16;;;;;;;6.30;3.95;;;0.30;99.90;;;;;;5004613;28;20213;-82
2023/04/03 03:09:42;;;;;;;4.03;3.53;;;0.30;99.90;;;;;;4991234;28;20489;-83
2023/04/03 03:12:10;;;;;;;4.00;3.60;;;0.30;99.90;;;;;;4999577;28;20220;-83
2023/04/03 03:14:36;;;;;;;4.20;3.33;;;0.20;99.90;;;;;;4997109;28;20217;-82
2023/04/03 03:17:03;;;;;;;8.68;3.45;;;0.20;99.90;;;;;;5012123;28;20237;-79
2023/04/03 03:19:30;;;;;;;6.22;4.45;;;0.30;99.90;;;;;;5008830;28;20217;-84
2023/04/03 03:21:57;;;;;;;4.95;3.70;;;0.30;99.90;;;;;;5009112;28;20516;-85
2023/04/03 03:24:24;;;;;;;8.15;3.47;;;0.20;99.90;;;;;;4980648;28;20214;-81
2023/04/03 03:26:51;;;;;;;12.55;4.97;;;0.20;99.90;;;;;;4999790;28;20211;-80
2023/04/03 03:29:18;;;;;;;7.75;4.03;;;0.20;99.90;;;;;;5005661;28;20233;-82
2023/04/03 03:31:45;;;;;;;7.80;4.25;;;0.10;99.90;;;;;;5009254;28;20534;-82
2023/04/03 03:34:12;;;;;;;11.80;4.10;;;0.10;99.90;;;;;;5006337;28;20216;-84
2023/04/03 03:36:40;;;;;;;7.70;4.55;;;0.20;99.90;;;;;;5004546;28;20252;-82
2023/04/03 03:39:07;;;;;;;9.80;3.25;;;0.00;99.90;;;;;;4999996;28;20502;-81
2023/04/03 03:41:34;;;;;;;4.07;3.72;;;-0.10;99.90;;;;;;5007332;28;20251;-84
2023/04/03 03:44:01;;;;;;;9.30;5.75;;;-0.10;99.90;;;;;;5015673;28;20267;-81
2023/04/03 03:46:28;;;;;;;12.30;5.07;;;-0.20;99.90;;;;;;5002226;28;20214;-82
2023/04/03 03:48:55;;;;;;;6.95;4.25;;;-0.10;99.90;;;;;;5001130;28;20210;-83
2023/04/03 03:51:22;;;;;;;7.43;4.07;;;-0.20;99.90;;;;;;5002705;28;20252;-82
2023/04/03 03:53:49;;;;;;;7.72;4.50;;;-0.20;99.90;;;;;;4996807;28;20237;-84
2023/04/03 03:56:16;;;;;;;4.72;4.20;;;-0.30;99.90;;;;;;5007084;28;20224;-84
2023/04/03 03:58:43;;;;;;;7.85;4.20;;;-0.30;99.90;;;;;;4999657;28;20304;-82
2023/04/03 04:01:10;;;;;;;11.20;5.10;;;-0.30;99.90;;;;;;4994653;28;20273;-81
2023/04/03 04:03:37;;;;;;;9.50;4.15;;;-0.30;99.90;;;;;;4999638;28;20217;-84
2023/04/03 04:06:04;;;;;;;9.05;4.70;;;-0.30;99.90;;;;;;5004563;28;20263;-81
2023/04/03 04:08:31;;;;;;;7.15;4.45;;;-0.30;99.90;;;;;;5011390;28;20354;-81
2023/04/03 04:10:58;;;;;;;5.38;4.85;;;-0.30;99.90;;;;;;5001402;28;20209;-86
2023/04/03 04:13:25;;;;;;;8.75;4.30;;;-0.40;99.90;;;;;;4989159;28;20209;-84
2023/04/03 04:15:51;;;;;;;7.22;4.15;;;-0.30;99.90;;;;;;5004181;28;20205;-82
2023/04/03 04:18:21;;;;;;;10.20;4.10;;;-0.30;99.90;;;;;;5006668;28;20229;-84
2023/04/03 04:20:48;;;;;;;6.30;4.10;;;-0.40;99.90;;;;;;5006559;28;20415;-87
2023/04/03 04:23:16;;;;;;;5.68;4.68;;;-0.40;99.90;;;;;;4980924;28;20214;-81
2023/04/03 04:25:47;;;;;;;17.02;6.45;;;-0.40;99.90;;;;;;4997671;28;20395;-82
2023/04/03 04:28:15;;;;;;;4.53;4.13;;;-0.40;99.90;;;;;;5003445;28;20426;-84
2023/04/03 04:30:42;;;;;;;9.77;5.80;;;-0.50;99.90;;;;;;5004122;28;20267;-83
2023/04/03 04:33:10;;;;;;;7.40;5.22;;;-0.40;99.90;;;;;;5007949;28;20264;-83
2023/04/03 04:35:37;;;;;;;7.43;4.90;;;-0.50;99.90;;;;;;5003858;28;20209;-87
2023/04/03 04:38:08;;;;;;;5.70;5.00;;;-0.50;99.90;;;;;;5004098;28;20224;-83
2023/04/03 04:40:37;;;;;;;9.38;4.40;;;-0.60;99.90;;;;;;5009746;28;20198;-87
2023/04/03 04:43:05;;;;;;;16.60;5.65;;;-0.50;99.90;;;;;;4999663;28;20205;-88
2023/04/03 04:45:37;;;;;;;8.02;5.20;;;-0.30;99.90;;;;;;5001195;28;20280;-83
2023/04/03 04:48:04;;;;;;;8.30;4.95;;;-0.50;99.90;;;;;;4996451;28;20223;-81
2023/04/03 04:50:33;;;;;;;6.72;4.03;;;-0.40;99.90;;;;;;5002290;28;20206;-88
2023/04/03 04:53:00;;;;;;;9.32;4.57;;;-0.30;99.90;;;;;;5003313;28;20216;-85
2023/04/03 04:55:30;;;;;;;8.77;4.30;;;-0.30;99.90;;;;;;4996416;28;20518;-85
2023/04/03 04:57:58;;;;;;;5.32;3.80;;;-0.20;99.90;;;;;;5011579;28;20583;-85
2023/04/03 05:00:26;;;;;;;5.78;3.38;;;-0.20;99.90;;;;;;5022929;28;20271;-83
2023/04/03 05:02:52;;;;;;;10.18;4.90;;;0.00;99.90;;;;;;5013045;28;20643;-83
2023/04/03 05:05:20;;;;;;;6.07;3.45;;;0.00;99.90;;;;;;4987184;28;20216;-83
2023/04/03 05:07:47;;;;;;;6.03;3.38;;;0.10;99.90;;;;;;4995015;28;20245;-82
2023/04/03 05:10:14;;;;;;;8.45;3.70;;;0.30;99.90;;;;;;5014254;28;20224;-86
2023/04/03 05:12:41;;;;;;;3.22;2.92;;;0.30;99.90;;;;;;5013443;28;20831;-83
2023/04/03 05:15:09;;;;;;;5.15;3.00;;;0.40;99.90;;;;;;4997551;28;20197;-84
2023/04/03 05:17:35;;;;;;;5.38;3.35;;;0.50;99.90;;;;;;4993628;28;20248;-81
2023/04/03 05:20:04;;;;;;;10.57;3.53;;;0.60;99.90;;;;;;5001088;28;20295;-83
2023/04/03 05:22:31;;;;;;;4.07;2.58;;;0.60;99.90;;;;;;4982709;28;20720;-80
2023/04/03 05:24:58;;;;;;;4.93;2.80;;;0.70;99.90;;;;;;4991804;28;20201;-79
2023/04/03 05:27:27;;;;;;;6.25;3.55;;;0.80;99.90;;;;;;5000993;28;20206;-82
2023/04/03 05:29:55;;;;;;;5.47;3.00;;;0.80;99.90;;;;;;5007550;28;20221;-83
2023/04/03 05:32:22;;;;;;;6.65;2.70;;;1.10;99.90;;;;;;5012642;28;20202;-82
2023/04/03 05:34:49;;;;;;;7.05;3.15;;;1.10;99.90;;;;;;4998985;28;20212;-80
2023/04/03 05:37:16;;;;;;;5.40;3.17;;;1.10;99.90;;;;;;4994264;28;20230;-83
2023/04/03 05:39:44;;;;;;;4.80;2.65;;;1.30;99.90;;;;;;4997927;28;20206;-82
2023/04/03 05:42:11;;;;;;;6.05;2.50;;;1.30;99.90;;;;;;5007792;28;20198;-81
2023/04/03 05:44:38;;;;;;;2.60;2.40;;;1.40;99.90;;;;;;5011082;28;20508;-84
2023/04/03 05:47:05;;;;;;;7.88;2.55;;;1.60;99.90;;;;;;5007753;28;20206;-84
2023/04/03 05:49:32;;;;;;;3.55;2.50;;;1.70;99.90;;;;;;4976546;28;20207;-83
2023/04/03 05:51:58;;;;;;;3.83;2.35;;;1.90;99.90;;;;;;5002211;28;20268;-85
2023/04/03 05:54:28;;;;;;;5.75;3.20;;;1.90;99.90;;;;;;5008233;28;20214;-83
2023/04/03 05:56:55;;;;;;;4.68;2.42;;;2.10;99.90;;;;;;5020927;28;20221;-80
2023/04/03 05:59:22;;;;;;;6.90;2.85;;;1.80;99.90;;;;;;4994605;28;20260;-82
2023/04/03 06:01:49;;;;;;;5.07;3.25;;;1.90;99.90;;;;;;5009895;28;20212;-83
2023/04/03 06:04:16;;;;;;;6.78;4.10;;;2.70;99.90;;;;;;5011602;28;20395;-83
2023/04/03 06:06:52;;;;;;;3.20;2.60;;;2.60;99.90;;;;;;4992976;28;20250;-83
2023/04/03 06:09:22;;;;;;;6.32;3.25;;;2.60;99.90;;;;;;5011609;28;20207;-81
2023/04/03 06:11:49;;;;;;;7.10;3.25;;;2.90;99.90;;;;;;5000370;28;20378;-82
2023/04/03 06:14:16;;;;;;;3.33;2.55;;;3.40;99.90;;;;;;5016676;28;20208;-84
2023/04/03 06:16:44;;;;;;;4.88;2.85;;;3.60;99.90;;;;;;5003184;28;20208;-81
2023/04/03 06:19:12;;;;;;;6.40;3.47;;;3.40;99.90;;;;;;5005128;28;20306;-80
2023/04/03 06:21:39;;;;;;;5.43;3.10;;;3.10;99.90;;;;;;5002674;28;20209;-79
2023/04/03 06:24:06;;;;;;;7.00;3.65;;;3.20;99.90;;;;;;4995566;28;20469;-80
2023/04/03 06:26:34;;;;;;;5.10;3.40;;;3.40;99.90;;;;;;4994955;28;20208;-80
2023/04/03 06:29:02;;;;;;;8.65;3.30;;;3.80;99.90;;;;;;5006554;28;20212;-81
2023/04/03 06:31:29;;;;;;;4.75;2.42;;;4.20;99.90;;;;;;5001661;28;20201;-79
2023/04/03 06:33:56;;;;;;;3.97;2.72;;;4.10;99.90;;;;;;5009192;28;20236;-78
2023/04/03 06:36:24;;;;;;;2.55;2.30;;;3.90;99.90;;;;;;4999155;28;20200;-78
2023/04/03 06:38:51;;;;;;;3.50;2.58;;;4.00;99.90;;;;;;5001656;28;20263;-80
2023/04/03 06:41:18;;;;;;;4.72;2.28;;;4.40;99.90;;;;;;4999534;28;20329;-82
2023/04/03 06:43:46;;;;;;;2.67;2.47;;;4.60;99.90;;;;;;5008278;28;20232;-79
2023/04/03 06:46:18;;;;;;;6.00;3.40;;;4.30;99.90;;;;;;4983688;28;20209;-81
2023/04/03 06:48:45;;;;;;;4.50;2.17;;;5.00;99.90;;;;;;4998273;28;20210;-80
2023/04/03 06:51:27;;;;;;;2.30;2.10;;;4.60;99.90;;;;;;4990451;28;20201;-80
2023/04/03 06:53:57;;;;;;;7.57;3.30;;;4.00;99.90;;;;;;5005447;28;20233;-80
2023/04/03 06:56:26;;;;;;;10.98;2.65;;;4.10;99.90;;;;;;5017133;28;20200;-81
2023/04/03 06:58:57;;;;;;;4.70;2.92;;;3.60;99.90;;;;;;5002446;28;20230;-78
2023/04/03 07:01:27;;;;;;;6.10;2.75;;;4.30;99.90;;;;;;5005087;28;20201;-80
2023/04/03 07:03:55;;;;;;;12.95;3.58;;;5.40;99.90;;;;;;5010445;28;20215;-79
2023/04/03 07:06:22;;;;;;;2.95;2.67;;;5.40;99.90;;;;;;5006191;28;20206;-79
2023/04/03 07:08:50;;;;;;;2.85;2.50;;;4.90;99.90;;;;;;5006829;28;20208;-80
2023/04/03 07:11:17;;;;;;;7.75;3.47;;;4.50;99.90;;;;;;5006781;28;20259;-81
2023/04/03 07:13:44;;;;;;;5.05;2.70;;;4.30;99.90;;;;;;4998056;28;20207;-80
2023/04/03 07:16:11;;;;;;;4.70;2.45;;;5.20;99.90;;;;;;5007311;28;20499;-78
2023/04/03 07:18:38;;;;;;;5.68;3.80;;;5.40;99.90;;;;;;5004392;28;20291;-78
2023/04/03 07:21:05;;;;;;;7.78;2.72;;;5.50;99.90;;;;;;5007849;28;20213;-79
2023/04/03 07:23:32;;;;;;;16.88;4.05;;;5.20;99.90;;;;;;5012908;28;20250;-78
2023/04/03 07:25:59;;;;;;;3.60;3.03;;;5.40;99.90;;;;;;5004261;28;20498;-81
2023/04/03 07:28:27;;;;;;;4.93;3.80;;;5.80;99.90;;;;;;4981157;28;20212;-81
2023/04/03 07:31:03;;;;;;;3.63;2.70;;;6.30;99.90;;;;;;5012446;28;20212;-79
2023/04/03 07:33:32;;;;;;;4.13;2.55;;;7.20;99.90;;;;;;5001409;28;20202;-79
2023/04/03 07:36:00;;;;;;;5.82;2.60;;;8.00;99.90;;;;;;4999746;28;20210;-80
2023/04/03 07:38:27;;;;;;;4.30;2.25;;;8.80;99.90;;;;;;5008116;28;20296;-82
2023/04/03 07:40:54;;;;;;;6.95;3.20;;;8.80;99.90;;;;;;4995188;28;20287;-80
2023/04/03 07:43:24;;;;;;;4.25;3.13;;;8.10;99.90;;;;;;4998131;28;20206;-80
2023/04/03 07:45:51;;;;;;;2.55;2.35;;;7.20;99.90;;;;;;5014676;28;20205;-80
2023/04/03 07:48:20;;;;;;;4.88;2.58;;;5.30;99.90;;;;;;5005415;28;20215;-78
2023/04/03 07:50:47;;;;;;;5.45;2.80;;;4.40;99.90;;;;;;4986693;28;20210;-81
2023/04/03 07:53:15;;;;;;;4.80;2.83;;;6.10;99.90;;;;;;4994372;28;20228;-79
2023/04/03 07:55:42;;;;;;;3.20;2.35;;;8.00;99.90;;;;;;5015274;28;20214;-79
2023/04/03 07:58:11;;;;;;;4.95;2.25;;;8.80;99.90;;;;;;4976052;28;20268;-79
2023/04/03 08:00:39;;;;;;;4.35;2.00;;;8.40;99.90;;;;;;4993062;28;20214;-80
2023/04/03 08:03:07;;;;;;;3.55;2.55;;;7.20;99.90;;;;;;5011004;28;20453;-79
2023/04/03 08:05:41;;;;;;;6.28;1.98;;;8.40;99.90;;;;;;4992145;28;20197;-80
2023/04/03 08:08:13;;;;;;;2.53;2.10;;;7.80;99.90;;;;;;4994629;28;20212;-78
2023/04/03 08:10:40;;;;;;;3.88;2.20;;;8.20;99.90;;;;;;4999644;28;20209;-79
2023/04/03 08:13:08;;;;;;;2.30;1.60;;;9.30;99.90;;;;;;5005117;28;20205;-80
2023/04/03 08:15:36;;;;;;;7.03;2.63;;;9.50;99.90;;;;;;5011033;28;20244;-78
2023/04/03 08:18:04;;;;;;;7.10;2.35;;;9.10;99.90;;;;;;4972938;28;20426;-81
2023/04/03 08:20:31;;;;;;;3.90;2.40;;;8.50;99.90;;;;;;4983582;28;20416;-79
2023/04/03 08:22:58;;;;;;;7.93;2.40;;;8.10;99.90;;;;;;4997500;28;20256;-81
2023/04/03 08:25:25;;;;;;;3.72;2.17;;;8.30;99.90;;;;;;5003524;28;20209;-81
2023/04/03 08:27:53;;;;;;;5.38;1.70;;;8.50;99.90;;;;;;5003138;28;20201;-78
2023/04/03 08:30:20;;;;;;;3.70;1.70;;;8.80;99.90;;;;;;5009352;28;20205;-79
2023/04/03 08:32:47;;;;;;;1.85;1.75;;;8.70;99.90;;;;;;5001181;28;20240;-79
2023/04/03 08:35:14;;;;;;;6.22;1.80;;;9.30;99.90;;;;;;5024347;28;20207;-80
2023/04/03 08:37:42;;;;;;;2.20;1.50;;;9.20;99.90;;;;;;5023717;28;20271;-78
2023/04/03 08:40:14;;;;;;;3.45;1.35;;;9.70;99.90;;;;;;4987362;28;20210;-80
2023/04/03 08:43:04;;;;;;;3.55;2.05;;;10.70;99.90;;;;;;5008576;28;20547;-80
2023/04/03 08:45:49;;;;;;;3.85;1.40;;;10.80;99.90;;;;;;5005360;28;20205;-80
2023/04/03 08:48:31;;;;;;;7.13;2.55;;;10.00;99.90;;;;;;5001490;28;20207;-80
2023/04/03 08:51:04;;;;;;;3.70;2.25;;;8.40;99.90;;;;;;5004201;28;20257;-79
2023/04/03 08:53:42;;;;;;;3.70;1.60;;;7.80;99.90;;;;;;5005172;28;20268;-79
2023/04/03 08:56:11;;;;;;;4.35;2.00;;;7.30;99.90;;;;;;5008032;28;20227;-78
2023/04/03 08:58:52;;;;;;;3.08;1.67;;;7.80;99.90;;;;;;4984160;28;20664;-79
2023/04/03 09:01:25;;;;;;;1.90;1.67;;;7.20;99.90;;;;;;5002313;28;20430;-79
2023/04/03 09:03:52;;;;;;;4.05;1.90;;;7.70;99.90;;;;;;5009574;28;20276;-80
2023/04/03 09:06:28;;;;;;;2.92;1.10;;;6.80;99.90;;;;;;5007634;28;20281;-79
2023/04/03 09:09:02;;;;;;;2.88;1.65;;;7.10;99.90;;;;;;5004158;28;20217;-79
2023/04/03 09:11:47;;;;;;;5.13;1.35;;;7.60;99.90;;;;;;4979518;28;20205;-79
2023/04/03 09:14:32;;;;;;;4.72;1.75;;;8.20;99.90;;;;;;5002705;28;20385;-79
2023/04/03 09:17:02;;;;;;;2.85;1.67;;;8.70;99.90;;;;;;4989383;28;20201;-78
2023/04/03 09:19:34;;;;;;;4.47;1.50;;;8.00;99.90;;;;;;5000380;28;20236;-77
2023/04/03 09:22:17;;;;;;;8.63;2.00;;;9.50;99.90;;;;;;5007201;28;20209;-78
2023/04/03 09:24:49;;;;;;;3.08;1.27;;;9.10;99.90;;;;;;5008725;28;20198;-80
2023/04/03 09:27:16;;;;;;;2.92;1.73;;;7.30;99.90;;;;;;4979747;28;20205;-79
2023/04/03 09:29:47;;;;;;;4.50;1.92;;;6.60;99.90;;;;;;5016572;28;20378;-79
2023/04/03 09:32:26;;;;;;;3.50;1.50;;;5.90;99.90;;;;;;5004585;28;20204;-79
2023/04/03 09:34:56;;;;;;;4.20;1.70;;;5.30;99.90;;;;;;5017235;28;20494;-80
2023/04/03 09:37:36;;;;;;;3.33;2.25;;;5.50;99.90;;;;;;5016747;28;20193;-81
2023/04/03 09:40:26;;;;;;;1.33;1.20;;;7.10;99.90;;;;;;5006650;28;20291;-79
2023/04/03 09:42:56;;;;;;;2.55;1.45;;;7.00;99.90;;;;;;5014747;28;20299;-79
2023/04/03 09:45:35;;;;;;;2.83;1.63;;;6.80;99.90;;;;;;5005684;28;20208;-79
2023/04/03 09:48:15;;;;;;;2.05;1.75;;;6.70;99.90;;;;;;5018330;28;20440;-79
2023/04/03 09:51:04;;;;;;;2.58;1.65;;;7.10;99.90;;;;;;5004593;28;20306;-80
2023/04/03 09:53:43;;;;;;;3.00;2.00;;;7.50;99.90;;;;;;4988067;28;20212;-78
2023/04/03 09:56:10;;;;;;;2.05;1.77;;;7.10;99.90;;;;;;5012556;28;20405;-79
2023/04/03 09:58:40;;;;;;;1.48;1.38;;;6.70;99.90;;;;;;5002240;28;20226;-78
2023/04/03 10:01:38;;;;;;;2.30;1.73;;;6.50;99.90;;;;;;5005642;28;20205;-78
2023/04/03 10:04:05;;;;;;;1.85;1.50;;;6.50;99.90;;;;;;5001773;28;20356;-81
2023/04/03 10:06:36;;;;;;;6.05;2.10;;;6.30;99.90;;;;;;5006189;28;20251;-78
2023/04/03 10:09:13;;;;;;;5.13;2.30;;;6.70;99.90;;;;;;5005069;28;20225;-79
2023/04/03 10:12:12;;;;;;;2.35;1.95;;;6.50;99.90;;;;;;5013925;28;20205;-78
2023/04/03 10:14:55;;;;;;;4.05;1.85;;;6.30;99.90;;;;;;5009109;28;20529;-81
2023/04/03 10:17:34;;;;;;;1.50;1.33;;;6.40;99.90;;;;;;4981681;28;20208;-78
2023/04/03 10:20:25;;;;;;;2.15;1.83;;;6.10;99.90;;;;;;5006809;28;20237;-78
2023/04/03 10:23:33;;;;;;;2.65;1.52;;;6.70;99.90;;;;;;4991639;28;20255;-80
2023/04/03 10:26:23;;;;;;;1.90;1.73;;;6.60;99.90;;;;;;5000726;28;20514;-79
2023/04/03 10:28:56;;;;;;;2.88;1.50;;;6.80;99.90;;;;;;5006489;28;20257;-78
2023/04/03 10:31:34;;;;;;;2.00;1.90;;;6.20;99.90;;;;;;4984403;28;20287;-78
2023/04/03 10:34:21;;;;;;;3.13;2.13;;;5.80;99.90;;;;;;5000019;28;20201;-79
2023/04/03 10:36:54;;;;;;;2.80;1.60;;;6.10;99.90;;;;;;5010579;28;20456;-80
2023/04/03 10:39:41;;;;;;;7.13;1.85;;;6.50;99.90;;;;;;5010350;28;20232;-79
2023/04/03 10:42:17;;;;;;;4.53;2.47;;;6.70;99.90;;;;;;4983775;28;20201;-79
2023/04/03 10:44:47;;;;;;;3.30;1.77;;;6.30;99.90;;;;;;5006719;28;20196;-81
2023/04/03 10:47:56;;;;;;;1.70;1.60;;;5.80;99.90;;;;;;5013804;28;20276;-80
2023/04/03 10:50:27;;;;;;;3.05;2.10;;;5.70;99.90;;;;;;5003653;28;20281;-79
2023/04/03 10:53:32;;;;;;;2.55;1.85;;;5.80;99.90;;;;;;5003989;28;20250;-82
2023/04/03 10:56:38;;;;;;;3.72;2.58;;;5.90;99.90;;;;;;5011390;28;20446;-79
2023/04/03 10:59:20;;;;;;;6.15;2.00;;;6.40;99.90;;;;;;4994474;28;20234;-81
2023/04/03 11:01:52;;;;;;;5.03;2.13;;;6.70;99.90;;;;;;5005825;28;20209;-78
2023/04/03 11:04:21;;;;;;;5.43;1.98;;;6.40;99.90;;;;;;5013785;28;20209;-81
2023/04/03 11:07:14;;;;;;;1.63;1.52;;;6.00;99.90;;;;;;5016531;28;20208;-79
2023/04/03 11:09:43;;;;;;;3.15;1.98;;;5.80;99.90;;;;;;5001681;28;20216;-79
2023/04/03 11:12:34;;;;;;;3.53;2.15;;;6.00;99.90;;;;;;5012846;28;20213;-79
2023/04/03 11:15:03;;;;;;;5.78;2.03;;;6.30;99.90;;;;;;4997786;28;20216;-79
2023/04/03 11:17:38;;;;;;;4.82;2.17;;;6.10;99.90;;;;;;5000644;28;20204;-81
2023/04/03 11:20:18;;;;;;;3.95;2.00;;;5.90;99.90;;;;;;5000532;28;20224;-81
2023/04/03 11:22:58;;;;;;;3.25;1.80;;;5.90;99.90;;;;;;4994877;28;20214;-78
2023/04/03 11:25:26;;;;;;;3.15;1.67;;;5.50;99.90;;;;;;4992284;28;20203;-79
2023/04/03 11:28:03;;;;;;;4.20;1.83;;;5.40;99.90;;;;;;4992998;28;20363;-81
2023/04/03 11:31:07;;;;;;;3.20;1.92;;;5.60;99.90;;;;;;4999985;28;20524;-81
2023/04/03 11:33:52;;;;;;;2.42;1.35;;;6.10;99.90;;;;;;5000138;28;20304;-80
2023/04/03 11:36:32;;;;;;;4.30;1.80;;;6.30;99.90;;;;;;5003141;28;20206;-81
2023/04/03 11:39:24;;;;;;;2.63;2.05;;;6.10;99.90;;;;;;4998669;28;20225;-79
2023/04/03 11:41:52;;;;;;;2.13;1.73;;;5.70;99.90;;;;;;5009064;28;20241;-80
2023/04/03 11:44:38;;;;;;;3.20;1.92;;;5.90;99.90;;;;;;4991556;28;20457;-80
2023/04/03 11:47:11;;;;;;;4.25;2.00;;;6.20;99.90;;;;;;5010112;28;20213;-78
2023/04/03 11:50:06;;;;;;;2.25;1.55;;;6.40;99.90;;;;;;5004387;28;20213;-78
2023/04/03 11:52:39;;;;;;;3.97;1.67;;;6.00;99.90;;;;;;5010192;28;20228;-80
2023/04/03 11:55:30;;;;;;;2.50;1.95;;;5.40;99.90;;;;;;5009993;28;20214;-80
2023/04/03 11:58:03;;;;;;;2.40;1.90;;;5.50;99.90;;;;;;4988300;28;20204;-80
2023/04/03 12:00:46;;;;;;;3.33;1.83;;;5.80;99.90;;;;;;4998023;28;20325;-79
2023/04/03 12:03:23;;;;;;;2.28;2.10;;;6.00;99.90;;;;;;5001262;28;20517;-80
2023/04/03 12:06:15;;;;;;;3.65;1.50;;;6.40;99.90;;;;;;5001972;28;20227;-80
2023/04/03 12:08:44;;;;;;;3.70;2.03;;;6.40;99.90;;;;;;5012519;28;20200;-81
2023/04/03 12:11:11;;;;;;;2.78;1.75;;;6.30;99.90;;;;;;5017272;28;20206;-81
2023/04/03 12:13:56;;;;;;;3.83;2.13;;;5.80;99.90;;;;;;4996832;28;20209;-84
2023/04/03 12:16:27;;;;;;;2.15;1.80;;;5.50;99.90;;;;;;5001257;28;20215;-81
2023/04/03 12:19:32;;;;;;;2.20;2.00;;;5.20;99.90;;;;;;5009394;28;20308;-81
2023/04/03 12:22:12;;;;;;;2.40;1.73;;;5.50;99.90;;;;;;4989490;28;20269;-81
2023/04/03 12:24:42;;;;;;;1.70;1.60;;;6.20;99.90;;;;;;5008237;28;20486;-78
2023/04/03 12:27:24;;;;;;;2.67;2.13;;;6.50;99.90;;;;;;5014144;28;20503;-80
2023/04/03 12:30:26;;;;;;;2.30;2.10;;;6.40;99.90;;;;;;4997954;28;20205;-80
2023/04/03 12:33:03;;;;;;;3.20;1.77;;;5.90;99.90;;;;;;4993266;28;20208;-79
2023/04/03 12:35:57;;;;;;;3.65;2.05;;;5.80;99.90;;;;;;5000379;28;20492;-80
2023/04/03 12:38:52;;;;;;;4.78;1.85;;;6.20;99.90;;;;;;5007081;28;20196;-79
2023/04/03 12:41:25;;;;;;;7.38;2.33;;;6.30;99.90;;;;;;4998621;28;20260;-78
2023/04/03 12:44:01;;;;;;;1.90;1.80;;;6.10;99.90;;;;;;5011965;28;20225;-80
2023/04/03 12:46:43;;;;;;;3.67;1.67;;;6.10;99.90;;;;;;4994871;28;20251;-79
2023/04/03 12:49:28;;;;;;;2.63;1.80;;;6.10;99.90;;;;;;5000422;28;20206;-81
2023/04/03 12:51:56;;;;;;;3.28;2.00;;;5.90;99.90;;;;;;4984163;28;20248;-78
2023/04/03 12:54:32;;;;;;;2.42;1.92;;;5.80;99.90;;;;;;5000238;28;20251;-81
2023/04/03 12:57:30;;;;;;;1.92;1.60;;;5.80;99.90;;;;;;5009086;28;20247;-81
2023/04/03 12:59:57;;;;;;;2.25;1.40;;;6.10;99.90;;;;;;4978161;28;20481;-81
2023/04/03 13:02:33;;;;;;;2.63;1.50;;;6.20;99.90;;;;;;4999891;28;20205;-82
2023/04/03 13:05:07;;;;;;;3.08;1.60;;;6.30;99.90;;;;;;4993581;28;20208;-79
2023/04/03 13:07:38;;;;;;;4.20;2.30;;;5.90;99.90;;;;;;4987702;28;20398;-80
2023/04/03 13:10:08;;;;;;;2.95;2.13;;;5.50;99.90;;;;;;5005275;28;20214;-82
2023/04/03 13:12:57;;;;;;;3.55;2.42;;;5.50;99.90;;;;;;5003357;28;20319;-80
2023/04/03 13:15:40;;;;;;;3.25;2.22;;;5.40;99.90;;;;;;4991299;28;20208;-79
2023/04/03 13:18:31;;;;;;;1.77;1.60;;;5.60;99.90;;;;;;5002274;28;20221;-80
2023/04/03 13:21:12;;;;;;;3.13;2.42;;;5.90;99.90;;;;;;5000474;28;20421;-80